sensor_id;sensor_type;location;lat;lon;timestamp;P1;durP1;ratioP1;P2;durP2;ratioP2
22357;SDS011;11346;50.150;8.150;2022-09-17T00:01:14;11.93;;;1.80;;
22357;SDS011;11346;50.150;8.150;2022-09-17T00:03:43;3.27;;;1.50;;
22357;SDS011;11346;50.150;8.150;2022-09-17T00:06:11;9.83;;;1.60;;
22357;SDS011;11346;50.150;8.150;2022-09-17T00:08:38;13.50;;;1.70;;
22357;SDS011;11346;50.150;8.150;2022-09-17T00:11:06;4.93;;;1.30;;
22357;SDS011;11346;50.150;8.150;2022-09-17T00:13:33;7.83;;;1.40;;
22357;SDS011;11346;50.150;8.150;2022-09-17T00:16:01;4.50;;;1.43;;
22357;SDS011;11346;50.150;8.150;2022-09-17T00:18:28;3.30;;;1.37;;
22357;SDS011;11346;50.150;8.150;2022-09-17T00:20:56;3.90;;;1.50;;
22357;SDS011;11346;50.150;8.150;2022-09-17T00:23:24;6.87;;;1.57;;
22357;SDS011;11346;50.150;8.150;2022-09-17T00:25:51;9.17;;;1.90;;
22357;SDS011;11346;50.150;8.150;2022-09-17T00:28:18;5.40;;;1.60;;
22357;SDS011;11346;50.150;8.150;2022-09-17T00:30:45;10.30;;;1.77;;
22357;SDS011;11346;50.150;8.150;2022-09-17T00:33:13;5.33;;;1.80;;
22357;SDS011;11346;50.150;8.150;2022-09-17T00:35:40;3.53;;;1.73;;
22357;SDS011;11346;50.150;8.150;2022-09-17T00:38:09;6.10;;;1.87;;
22357;SDS011;11346;50.150;8.150;2022-09-17T00:40:36;8.97;;;1.90;;
22357;SDS011;11346;50.150;8.150;2022-09-17T00:43:03;4.43;;;1.50;;
22357;SDS011;11346;50.150;8.150;2022-09-17T00:45:30;7.70;;;1.63;;
22357;SDS011;11346;50.150;8.150;2022-09-17T00:47:58;8.80;;;2.20;;
22357;SDS011;11346;50.150;8.150;2022-09-17T00:50:26;8.27;;;2.10;;
22357;SDS011;11346;50.150;8.150;2022-09-17T00:52:55;5.60;;;2.47;;
22357;SDS011;11346;50.150;8.150;2022-09-17T00:55:25;4.67;;;1.60;;
22357;SDS011;11346;50.150;8.150;2022-09-17T00:57:54;7.37;;;1.97;;
22357;SDS011;11346;50.150;8.150;2022-09-17T01:00:22;4.10;;;1.60;;
22357;SDS011;11346;50.150;8.150;2022-09-17T01:02:49;6.20;;;2.07;;
22357;SDS011;11346;50.150;8.150;2022-09-17T01:05:17;4.80;;;1.90;;
22357;SDS011;11346;50.150;8.150;2022-09-17T01:07:47;7.10;;;1.90;;
22357;SDS011;11346;50.150;8.150;2022-09-17T01:10:21;7.33;;;2.13;;
22357;SDS011;11346;50.150;8.150;2022-09-17T01:12:58;15.77;;;3.30;;
22357;SDS011;11346;50.150;8.150;2022-09-17T01:15:29;5.63;;;2.20;;
22357;SDS011;11346;50.150;8.150;2022-09-17T01:18:13;9.87;;;2.20;;
22357;SDS011;11346;50.150;8.150;2022-09-17T01:20:55;6.97;;;1.80;;
22357;SDS011;11346;50.150;8.150;2022-09-17T01:23:31;6.17;;;1.80;;
22357;SDS011;11346;50.150;8.150;2022-09-17T01:26:07;8.07;;;2.27;;
22357;SDS011;11346;50.150;8.150;2022-09-17T01:28:41;6.33;;;2.13;;
22357;SDS011;11346;50.150;8.150;2022-09-17T01:31:23;8.47;;;2.00;;
22357;SDS011;11346;50.150;8.150;2022-09-17T01:33:57;7.13;;;2.50;;
22357;SDS011;11346;50.150;8.150;2022-09-17T01:36:31;5.67;;;2.30;;
22357;SDS011;11346;50.150;8.150;2022-09-17T01:39:02;6.70;;;1.80;;
22357;SDS011;11346;50.150;8.150;2022-09-17T01:41:31;8.30;;;2.30;;
22357;SDS011;11346;50.150;8.150;2022-09-17T01:44:01;8.27;;;2.20;;
22357;SDS011;11346;50.150;8.150;2022-09-17T01:46:32;6.07;;;1.90;;
22357;SDS011;11346;50.150;8.150;2022-09-17T01:49:00;8.37;;;3.10;;
22357;SDS011;11346;50.150;8.150;2022-09-17T01:51:28;8.63;;;2.23;;
22357;SDS011;11346;50.150;8.150;2022-09-17T01:53:56;6.03;;;2.40;;
22357;SDS011;11346;50.150;8.150;2022-09-17T01:56:25;8.30;;;2.70;;
22357;SDS011;11346;50.150;8.150;2022-09-17T01:58:55;8.13;;;2.43;;
22357;SDS011;11346;50.150;8.150;2022-09-17T02:01:23;4.63;;;2.10;;
22357;SDS011;11346;50.150;8.150;2022-09-17T02:03:56;7.73;;;2.33;;
22357;SDS011;11346;50.150;8.150;2022-09-17T02:06:28;3.87;;;2.10;;
22357;SDS011;11346;50.150;8.150;2022-09-17T02:08:58;6.33;;;2.13;;
22357;SDS011;11346;50.150;8.150;2022-09-17T02:11:27;4.13;;;2.20;;
22357;SDS011;11346;50.150;8.150;2022-09-17T02:13:54;5.87;;;2.20;;
22357;SDS011;11346;50.150;8.150;2022-09-17T02:16:23;8.53;;;2.10;;
22357;SDS011;11346;50.150;8.150;2022-09-17T02:18:53;5.83;;;2.07;;
22357;SDS011;11346;50.150;8.150;2022-09-17T02:21:24;10.03;;;2.20;;
22357;SDS011;11346;50.150;8.150;2022-09-17T02:23:56;8.40;;;2.60;;
22357;SDS011;11346;50.150;8.150;2022-09-17T02:26:28;9.87;;;2.30;;
22357;SDS011;11346;50.150;8.150;2022-09-17T02:28:55;7.37;;;2.23;;
22357;SDS011;11346;50.150;8.150;2022-09-17T02:31:25;7.70;;;2.80;;
22357;SDS011;11346;50.150;8.150;2022-09-17T02:33:52;7.70;;;2.47;;
22357;SDS011;11346;50.150;8.150;2022-09-17T02:36:22;5.43;;;2.20;;
22357;SDS011;11346;50.150;8.150;2022-09-17T02:38:53;6.50;;;2.20;;
22357;SDS011;11346;50.150;8.150;2022-09-17T02:41:22;7.53;;;2.13;;
22357;SDS011;11346;50.150;8.150;2022-09-17T02:43:50;5.63;;;2.33;;
22357;SDS011;11346;50.150;8.150;2022-09-17T02:46:26;7.40;;;2.10;;
22357;SDS011;11346;50.150;8.150;2022-09-17T02:49:01;8.37;;;2.67;;
22357;SDS011;11346;50.150;8.150;2022-09-17T02:51:32;6.80;;;2.40;;
22357;SDS011;11346;50.150;8.150;2022-09-17T02:54:04;9.47;;;2.70;;
22357;SDS011;11346;50.150;8.150;2022-09-17T02:56:36;6.90;;;2.70;;
22357;SDS011;11346;50.150;8.150;2022-09-17T02:59:12;7.43;;;2.53;;
22357;SDS011;11346;50.150;8.150;2022-09-17T03:01:44;6.87;;;2.50;;
22357;SDS011;11346;50.150;8.150;2022-09-17T03:04:12;5.23;;;2.17;;
22357;SDS011;11346;50.150;8.150;2022-09-17T03:06:42;9.40;;;2.60;;
22357;SDS011;11346;50.150;8.150;2022-09-17T03:09:11;13.53;;;2.87;;
22357;SDS011;11346;50.150;8.150;2022-09-17T03:11:38;10.33;;;2.50;;
22357;SDS011;11346;50.150;8.150;2022-09-17T03:14:05;12.67;;;2.53;;
22357;SDS011;11346;50.150;8.150;2022-09-17T03:16:32;7.30;;;2.47;;
22357;SDS011;11346;50.150;8.150;2022-09-17T03:18:59;4.03;;;2.57;;
22357;SDS011;11346;50.150;8.150;2022-09-17T03:21:26;4.23;;;2.53;;
22357;SDS011;11346;50.150;8.150;2022-09-17T03:23:54;7.57;;;2.60;;
22357;SDS011;11346;50.150;8.150;2022-09-17T03:26:21;6.17;;;2.70;;
22357;SDS011;11346;50.150;8.150;2022-09-17T03:28:48;11.33;;;2.50;;
22357;SDS011;11346;50.150;8.150;2022-09-17T03:31:15;11.07;;;2.53;;
22357;SDS011;11346;50.150;8.150;2022-09-17T03:33:42;7.97;;;2.53;;
22357;SDS011;11346;50.150;8.150;2022-09-17T03:36:09;8.03;;;2.30;;
22357;SDS011;11346;50.150;8.150;2022-09-17T03:38:36;9.43;;;2.80;;
22357;SDS011;11346;50.150;8.150;2022-09-17T03:41:05;9.13;;;2.73;;
22357;SDS011;11346;50.150;8.150;2022-09-17T03:43:33;11.07;;;2.80;;
22357;SDS011;11346;50.150;8.150;2022-09-17T03:46:00;6.47;;;2.93;;
22357;SDS011;11346;50.150;8.150;2022-09-17T03:48:27;8.33;;;2.60;;
22357;SDS011;11346;50.150;8.150;2022-09-17T03:50:54;7.07;;;2.90;;
22357;SDS011;11346;50.150;8.150;2022-09-17T03:53:21;8.87;;;2.40;;
22357;SDS011;11346;50.150;8.150;2022-09-17T03:55:48;4.47;;;2.47;;
22357;SDS011;11346;50.150;8.150;2022-09-17T03:58:17;4.17;;;2.20;;
22357;SDS011;11346;50.150;8.150;2022-09-17T04:00:44;7.17;;;2.53;;
22357;SDS011;11346;50.150;8.150;2022-09-17T04:03:11;7.63;;;2.33;;
22357;SDS011;11346;50.150;8.150;2022-09-17T04:05:38;2.90;;;2.00;;
22357;SDS011;11346;50.150;8.150;2022-09-17T04:08:05;8.73;;;2.20;;
22357;SDS011;11346;50.150;8.150;2022-09-17T04:10:32;3.93;;;1.90;;
22357;SDS011;11346;50.150;8.150;2022-09-17T04:12:59;2.33;;;1.90;;
22357;SDS011;11346;50.150;8.150;2022-09-17T04:15:28;3.63;;;1.80;;
22357;SDS011;11346;50.150;8.150;2022-09-17T04:17:55;5.60;;;2.03;;
22357;SDS011;11346;50.150;8.150;2022-09-17T04:20:23;7.67;;;1.90;;
22357;SDS011;11346;50.150;8.150;2022-09-17T04:22:50;5.87;;;2.43;;
22357;SDS011;11346;50.150;8.150;2022-09-17T04:25:17;4.87;;;1.80;;
22357;SDS011;11346;50.150;8.150;2022-09-17T04:27:44;7.07;;;1.93;;
22357;SDS011;11346;50.150;8.150;2022-09-17T04:30:13;3.10;;;1.70;;
22357;SDS011;11346;50.150;8.150;2022-09-17T04:32:41;4.20;;;1.87;;
22357;SDS011;11346;50.150;8.150;2022-09-17T04:35:08;4.33;;;1.67;;
22357;SDS011;11346;50.150;8.150;2022-09-17T04:37:35;5.70;;;1.77;;
22357;SDS011;11346;50.150;8.150;2022-09-17T04:40:05;3.93;;;1.90;;
22357;SDS011;11346;50.150;8.150;2022-09-17T04:42:32;4.73;;;2.00;;
22357;SDS011;11346;50.150;8.150;2022-09-17T04:44:59;6.50;;;2.47;;
22357;SDS011;11346;50.150;8.150;2022-09-17T04:47:26;8.37;;;2.40;;
22357;SDS011;11346;50.150;8.150;2022-09-17T04:49:54;5.17;;;2.60;;
22357;SDS011;11346;50.150;8.150;2022-09-17T04:52:22;8.93;;;3.30;;
22357;SDS011;11346;50.150;8.150;2022-09-17T04:54:49;9.97;;;3.50;;
22357;SDS011;11346;50.150;8.150;2022-09-17T04:57:16;10.90;;;3.70;;
22357;SDS011;11346;50.150;8.150;2022-09-17T04:59:43;9.07;;;3.87;;
22357;SDS011;11346;50.150;8.150;2022-09-17T05:02:10;13.20;;;4.00;;
22357;SDS011;11346;50.150;8.150;2022-09-17T05:04:37;11.07;;;4.10;;
22357;SDS011;11346;50.150;8.150;2022-09-17T05:07:05;9.47;;;3.97;;
22357;SDS011;11346;50.150;8.150;2022-09-17T05:09:32;13.73;;;3.90;;
22357;SDS011;11346;50.150;8.150;2022-09-17T05:11:59;9.83;;;3.80;;
22357;SDS011;11346;50.150;8.150;2022-09-17T05:14:26;12.97;;;4.07;;
22357;SDS011;11346;50.150;8.150;2022-09-17T05:16:53;13.80;;;3.70;;
22357;SDS011;11346;50.150;8.150;2022-09-17T05:19:20;10.20;;;3.90;;
22357;SDS011;11346;50.150;8.150;2022-09-17T05:21:47;9.07;;;3.53;;
22357;SDS011;11346;50.150;8.150;2022-09-17T05:24:16;9.90;;;4.00;;
22357;SDS011;11346;50.150;8.150;2022-09-17T05:26:43;8.97;;;3.80;;
22357;SDS011;11346;50.150;8.150;2022-09-17T05:29:10;16.60;;;3.67;;
22357;SDS011;11346;50.150;8.150;2022-09-17T05:31:37;13.17;;;4.27;;
22357;SDS011;11346;50.150;8.150;2022-09-17T05:34:04;14.37;;;4.10;;
22357;SDS011;11346;50.150;8.150;2022-09-17T05:36:31;11.07;;;3.90;;
22357;SDS011;11346;50.150;8.150;2022-09-17T05:38:58;11.63;;;4.17;;
22357;SDS011;11346;50.150;8.150;2022-09-17T05:41:27;12.97;;;3.83;;
22357;SDS011;11346;50.150;8.150;2022-09-17T05:43:53;14.30;;;4.10;;
22357;SDS011;11346;50.150;8.150;2022-09-17T05:46:20;17.20;;;4.30;;
22357;SDS011;11346;50.150;8.150;2022-09-17T05:48:47;9.47;;;3.93;;
22357;SDS011;11346;50.150;8.150;2022-09-17T05:51:14;13.87;;;4.20;;
22357;SDS011;11346;50.150;8.150;2022-09-17T05:53:42;13.50;;;4.00;;
22357;SDS011;11346;50.150;8.150;2022-09-17T05:56:09;15.77;;;4.33;;
22357;SDS011;11346;50.150;8.150;2022-09-17T05:58:38;12.40;;;4.03;;
22357;SDS011;11346;50.150;8.150;2022-09-17T06:01:06;12.83;;;4.00;;
22357;SDS011;11346;50.150;8.150;2022-09-17T06:03:39;11.53;;;4.13;;
22357;SDS011;11346;50.150;8.150;2022-09-17T06:06:07;12.93;;;4.30;;
22357;SDS011;11346;50.150;8.150;2022-09-17T06:08:34;9.67;;;4.10;;
22357;SDS011;11346;50.150;8.150;2022-09-17T06:11:02;11.27;;;4.07;;
22357;SDS011;11346;50.150;8.150;2022-09-17T06:13:29;11.63;;;3.97;;
22357;SDS011;11346;50.150;8.150;2022-09-17T06:15:58;11.07;;;4.10;;
22357;SDS011;11346;50.150;8.150;2022-09-17T06:18:25;9.03;;;3.93;;
22357;SDS011;11346;50.150;8.150;2022-09-17T06:20:53;11.60;;;4.30;;
22357;SDS011;11346;50.150;8.150;2022-09-17T06:23:20;12.13;;;4.30;;
22357;SDS011;11346;50.150;8.150;2022-09-17T06:25:51;11.33;;;4.23;;
22357;SDS011;11346;50.150;8.150;2022-09-17T06:28:18;13.37;;;4.10;;
22357;SDS011;11346;50.150;8.150;2022-09-17T06:30:45;14.13;;;4.37;;
22357;SDS011;11346;50.150;8.150;2022-09-17T06:33:14;10.10;;;4.67;;
22357;SDS011;11346;50.150;8.150;2022-09-17T06:35:41;7.67;;;4.23;;
22357;SDS011;11346;50.150;8.150;2022-09-17T06:38:08;15.67;;;3.97;;
22357;SDS011;11346;50.150;8.150;2022-09-17T06:40:36;8.73;;;3.97;;
22357;SDS011;11346;50.150;8.150;2022-09-17T06:43:03;10.73;;;3.83;;
22357;SDS011;11346;50.150;8.150;2022-09-17T06:45:30;13.47;;;4.73;;
22357;SDS011;11346;50.150;8.150;2022-09-17T06:47:57;12.00;;;4.00;;
22357;SDS011;11346;50.150;8.150;2022-09-17T06:50:30;12.93;;;4.03;;
22357;SDS011;11346;50.150;8.150;2022-09-17T06:52:57;18.33;;;4.53;;
22357;SDS011;11346;50.150;8.150;2022-09-17T06:55:24;14.33;;;3.60;;
22357;SDS011;11346;50.150;8.150;2022-09-17T06:57:52;10.83;;;3.83;;
22357;SDS011;11346;50.150;8.150;2022-09-17T07:00:19;13.80;;;4.00;;
22357;SDS011;11346;50.150;8.150;2022-09-17T07:02:53;11.77;;;3.60;;
22357;SDS011;11346;50.150;8.150;2022-09-17T07:05:21;9.80;;;3.40;;
22357;SDS011;11346;50.150;8.150;2022-09-17T07:07:50;11.15;;;4.05;;
22357;SDS011;11346;50.150;8.150;2022-09-17T07:10:17;14.33;;;3.20;;
22357;SDS011;11346;50.150;8.150;2022-09-17T07:12:44;11.70;;;3.90;;
22357;SDS011;11346;50.150;8.150;2022-09-17T07:15:11;7.93;;;3.17;;
22357;SDS011;11346;50.150;8.150;2022-09-17T07:17:39;10.20;;;3.03;;
22357;SDS011;11346;50.150;8.150;2022-09-17T07:20:08;10.00;;;3.10;;
22357;SDS011;11346;50.150;8.150;2022-09-17T07:22:35;15.17;;;3.60;;
22357;SDS011;11346;50.150;8.150;2022-09-17T07:25:04;12.23;;;3.37;;
22357;SDS011;11346;50.150;8.150;2022-09-17T07:27:32;11.40;;;2.87;;
22357;SDS011;11346;50.150;8.150;2022-09-17T07:29:59;13.37;;;3.40;;
22357;SDS011;11346;50.150;8.150;2022-09-17T07:32:27;11.80;;;2.90;;
22357;SDS011;11346;50.150;8.150;2022-09-17T07:34:54;15.03;;;3.57;;
22357;SDS011;11346;50.150;8.150;2022-09-17T07:37:21;7.93;;;3.30;;
22357;SDS011;11346;50.150;8.150;2022-09-17T07:39:48;8.63;;;3.20;;
22357;SDS011;11346;50.150;8.150;2022-09-17T07:42:17;9.17;;;3.33;;
22357;SDS011;11346;50.150;8.150;2022-09-17T07:44:44;8.40;;;2.80;;
22357;SDS011;11346;50.150;8.150;2022-09-17T07:47:11;11.93;;;3.23;;
22357;SDS011;11346;50.150;8.150;2022-09-17T07:49:38;15.60;;;4.10;;
22357;SDS011;11346;50.150;8.150;2022-09-17T07:52:05;11.07;;;2.97;;
22357;SDS011;11346;50.150;8.150;2022-09-17T07:54:32;13.53;;;3.43;;
22357;SDS011;11346;50.150;8.150;2022-09-17T07:57:00;8.77;;;3.17;;
22357;SDS011;11346;50.150;8.150;2022-09-17T07:59:29;14.50;;;3.27;;
22357;SDS011;11346;50.150;8.150;2022-09-17T08:01:56;6.70;;;2.83;;
22357;SDS011;11346;50.150;8.150;2022-09-17T08:04:23;10.23;;;3.20;;
22357;SDS011;11346;50.150;8.150;2022-09-17T08:06:50;8.83;;;3.10;;
22357;SDS011;11346;50.150;8.150;2022-09-17T08:09:17;13.23;;;3.27;;
22357;SDS011;11346;50.150;8.150;2022-09-17T08:11:44;9.40;;;2.83;;
22357;SDS011;11346;50.150;8.150;2022-09-17T08:14:12;8.87;;;2.90;;
22357;SDS011;11346;50.150;8.150;2022-09-17T08:16:40;11.33;;;2.70;;
22357;SDS011;11346;50.150;8.150;2022-09-17T08:19:09;12.07;;;3.27;;
22357;SDS011;11346;50.150;8.150;2022-09-17T08:21:36;9.70;;;2.93;;
22357;SDS011;11346;50.150;8.150;2022-09-17T08:24:03;8.40;;;3.20;;
22357;SDS011;11346;50.150;8.150;2022-09-17T08:26:30;9.70;;;2.90;;
22357;SDS011;11346;50.150;8.150;2022-09-17T08:28:58;8.70;;;2.63;;
22357;SDS011;11346;50.150;8.150;2022-09-17T08:31:25;7.40;;;2.53;;
22357;SDS011;11346;50.150;8.150;2022-09-17T08:33:55;12.27;;;2.70;;
22357;SDS011;11346;50.150;8.150;2022-09-17T08:36:22;10.53;;;2.67;;
22357;SDS011;11346;50.150;8.150;2022-09-17T08:38:51;7.73;;;2.67;;
22357;SDS011;11346;50.150;8.150;2022-09-17T08:41:20;8.03;;;2.37;;
22357;SDS011;11346;50.150;8.150;2022-09-17T08:43:50;13.80;;;2.80;;
22357;SDS011;11346;50.150;8.150;2022-09-17T08:46:18;5.27;;;2.20;;
22357;SDS011;11346;50.150;8.150;2022-09-17T08:48:46;9.50;;;2.10;;
22357;SDS011;11346;50.150;8.150;2022-09-17T08:51:19;6.10;;;2.47;;
22357;SDS011;11346;50.150;8.150;2022-09-17T08:53:52;5.83;;;2.10;;
22357;SDS011;11346;50.150;8.150;2022-09-17T08:56:22;5.63;;;1.77;;
22357;SDS011;11346;50.150;8.150;2022-09-17T09:01:34;9.90;;;2.70;;
22357;SDS011;11346;50.150;8.150;2022-09-17T09:04:10;7.30;;;2.17;;
22357;SDS011;11346;50.150;8.150;2022-09-17T09:06:45;9.40;;;2.03;;
22357;SDS011;11346;50.150;8.150;2022-09-17T09:09:13;6.60;;;2.17;;
22357;SDS011;11346;50.150;8.150;2022-09-17T09:11:41;7.90;;;2.30;;
22357;SDS011;11346;50.150;8.150;2022-09-17T09:14:10;4.73;;;2.00;;
22357;SDS011;11346;50.150;8.150;2022-09-17T09:16:39;4.77;;;1.80;;
22357;SDS011;11346;50.150;8.150;2022-09-17T09:19:11;4.17;;;1.77;;
22357;SDS011;11346;50.150;8.150;2022-09-17T09:21:43;7.10;;;1.70;;
22357;SDS011;11346;50.150;8.150;2022-09-17T09:24:16;6.60;;;1.77;;
22357;SDS011;11346;50.150;8.150;2022-09-17T09:26:48;3.30;;;1.30;;
22357;SDS011;11346;50.150;8.150;2022-09-17T09:29:19;2.90;;;1.10;;
22357;SDS011;11346;50.150;8.150;2022-09-17T09:31:53;4.57;;;1.40;;
22357;SDS011;11346;50.150;8.150;2022-09-17T09:34:24;6.63;;;1.40;;
22357;SDS011;11346;50.150;8.150;2022-09-17T09:36:53;3.63;;;1.20;;
22357;SDS011;11346;50.150;8.150;2022-09-17T09:39:23;3.20;;;1.53;;
22357;SDS011;11346;50.150;8.150;2022-09-17T09:41:54;3.07;;;1.37;;
22357;SDS011;11346;50.150;8.150;2022-09-17T09:44:24;6.47;;;1.27;;
22357;SDS011;11346;50.150;8.150;2022-09-17T09:47:04;2.67;;;1.40;;
22357;SDS011;11346;50.150;8.150;2022-09-17T09:49:37;3.67;;;1.30;;
22357;SDS011;11346;50.150;8.150;2022-09-17T09:52:12;5.43;;;1.30;;
22357;SDS011;11346;50.150;8.150;2022-09-17T09:54:51;6.00;;;1.50;;
22357;SDS011;11346;50.150;8.150;2022-09-17T09:57:21;5.23;;;1.50;;
22357;SDS011;11346;50.150;8.150;2022-09-17T09:59:50;6.27;;;1.53;;
22357;SDS011;11346;50.150;8.150;2022-09-17T10:02:17;4.63;;;1.30;;
22357;SDS011;11346;50.150;8.150;2022-09-17T10:04:44;2.97;;;1.20;;
22357;SDS011;11346;50.150;8.150;2022-09-17T10:07:11;5.77;;;1.50;;
22357;SDS011;11346;50.150;8.150;2022-09-17T10:09:41;6.67;;;1.60;;
22357;SDS011;11346;50.150;8.150;2022-09-17T10:12:15;7.53;;;2.20;;
22357;SDS011;11346;50.150;8.150;2022-09-17T10:14:43;5.57;;;1.60;;
22357;SDS011;11346;50.150;8.150;2022-09-17T10:17:13;7.83;;;1.70;;
22357;SDS011;11346;50.150;8.150;2022-09-17T10:19:41;4.33;;;1.67;;
22357;SDS011;11346;50.150;8.150;2022-09-17T10:22:18;11.17;;;1.67;;
22357;SDS011;11346;50.150;8.150;2022-09-17T10:24:48;11.57;;;2.10;;
22357;SDS011;11346;50.150;8.150;2022-09-17T10:27:18;7.30;;;1.80;;
22357;SDS011;11346;50.150;8.150;2022-09-17T10:29:48;7.40;;;1.77;;
22357;SDS011;11346;50.150;8.150;2022-09-17T10:32:16;4.97;;;1.37;;
22357;SDS011;11346;50.150;8.150;2022-09-17T10:34:56;5.47;;;1.50;;
22357;SDS011;11346;50.150;8.150;2022-09-17T10:37:33;11.70;;;2.33;;
22357;SDS011;11346;50.150;8.150;2022-09-17T10:40:02;9.70;;;1.80;;
22357;SDS011;11346;50.150;8.150;2022-09-17T10:45:33;8.50;;;1.50;;
22357;SDS011;11346;50.150;8.150;2022-09-17T10:48:02;7.43;;;1.80;;
22357;SDS011;11346;50.150;8.150;2022-09-17T10:50:30;7.50;;;1.90;;
22357;SDS011;11346;50.150;8.150;2022-09-17T10:52:59;6.43;;;1.60;;
22357;SDS011;11346;50.150;8.150;2022-09-17T10:55:27;12.87;;;2.27;;
22357;SDS011;11346;50.150;8.150;2022-09-17T11:00:46;4.60;;;1.63;;
22357;SDS011;11346;50.150;8.150;2022-09-17T11:06:09;5.07;;;1.50;;
22357;SDS011;11346;50.150;8.150;2022-09-17T11:08:41;6.67;;;1.30;;
22357;SDS011;11346;50.150;8.150;2022-09-17T11:11:15;4.67;;;1.30;;
22357;SDS011;11346;50.150;8.150;2022-09-17T11:13:46;6.77;;;1.33;;
22357;SDS011;11346;50.150;8.150;2022-09-17T11:16:25;5.80;;;0.90;;
22357;SDS011;11346;50.150;8.150;2022-09-17T11:18:55;5.73;;;1.30;;
22357;SDS011;11346;50.150;8.150;2022-09-17T11:21:30;3.33;;;1.20;;
22357;SDS011;11346;50.150;8.150;2022-09-17T11:26:47;3.83;;;1.30;;
22357;SDS011;11346;50.150;8.150;2022-09-17T11:29:28;3.60;;;1.20;;
22357;SDS011;11346;50.150;8.150;2022-09-17T11:31:58;6.63;;;1.20;;
22357;SDS011;11346;50.150;8.150;2022-09-17T11:34:28;2.03;;;0.90;;
22357;SDS011;11346;50.150;8.150;2022-09-17T11:36:59;4.27;;;1.40;;
22357;SDS011;11346;50.150;8.150;2022-09-17T11:39:30;2.00;;;0.80;;
22357;SDS011;11346;50.150;8.150;2022-09-17T11:41:59;3.83;;;0.80;;
22357;SDS011;11346;50.150;8.150;2022-09-17T11:44:29;3.10;;;1.00;;
22357;SDS011;11346;50.150;8.150;2022-09-17T11:47:01;4.30;;;1.10;;
22357;SDS011;11346;50.150;8.150;2022-09-17T11:49:32;4.10;;;0.80;;
22357;SDS011;11346;50.150;8.150;2022-09-17T11:52:01;4.43;;;1.20;;
22357;SDS011;11346;50.150;8.150;2022-09-17T11:54:30;8.40;;;1.20;;
22357;SDS011;11346;50.150;8.150;2022-09-17T11:57:02;2.60;;;1.00;;
22357;SDS011;11346;50.150;8.150;2022-09-17T11:59:32;3.70;;;1.27;;
22357;SDS011;11346;50.150;8.150;2022-09-17T12:02:03;4.30;;;1.10;;
22357;SDS011;11346;50.150;8.150;2022-09-17T12:04:34;3.57;;;1.30;;
22357;SDS011;11346;50.150;8.150;2022-09-17T12:07:07;2.07;;;0.90;;
22357;SDS011;11346;50.150;8.150;2022-09-17T12:09:40;3.00;;;1.00;;
22357;SDS011;11346;50.150;8.150;2022-09-17T12:12:09;3.17;;;0.90;;
22357;SDS011;11346;50.150;8.150;2022-09-17T12:14:38;4.37;;;1.00;;
22357;SDS011;11346;50.150;8.150;2022-09-17T12:17:10;3.33;;;0.90;;
22357;SDS011;11346;50.150;8.150;2022-09-17T12:19:40;3.10;;;0.93;;
22357;SDS011;11346;50.150;8.150;2022-09-17T12:22:10;2.10;;;0.93;;
22357;SDS011;11346;50.150;8.150;2022-09-17T12:24:39;2.67;;;0.90;;
22357;SDS011;11346;50.150;8.150;2022-09-17T12:27:08;2.33;;;0.90;;
22357;SDS011;11346;50.150;8.150;2022-09-17T12:29:44;2.03;;;0.80;;
22357;SDS011;11346;50.150;8.150;2022-09-17T12:32:20;2.20;;;0.83;;
22357;SDS011;11346;50.150;8.150;2022-09-17T12:34:50;2.07;;;1.00;;
22357;SDS011;11346;50.150;8.150;2022-09-17T12:37:20;1.90;;;0.90;;
22357;SDS011;11346;50.150;8.150;2022-09-17T12:40:01;4.63;;;1.00;;
22357;SDS011;11346;50.150;8.150;2022-09-17T12:42:36;1.93;;;0.93;;
22357;SDS011;11346;50.150;8.150;2022-09-17T12:45:12;5.03;;;1.00;;
22357;SDS011;11346;50.150;8.150;2022-09-17T12:47:45;3.57;;;0.93;;
22357;SDS011;11346;50.150;8.150;2022-09-17T12:50:18;3.17;;;1.10;;
22357;SDS011;11346;50.150;8.150;2022-09-17T12:52:49;5.33;;;1.10;;
22357;SDS011;11346;50.150;8.150;2022-09-17T12:55:29;3.73;;;0.83;;
22357;SDS011;11346;50.150;8.150;2022-09-17T12:58:03;1.83;;;0.90;;
22357;SDS011;11346;50.150;8.150;2022-09-17T13:00:35;3.20;;;0.90;;
22357;SDS011;11346;50.150;8.150;2022-09-17T13:03:05;2.73;;;0.90;;
22357;SDS011;11346;50.150;8.150;2022-09-17T13:05:46;1.93;;;1.20;;
22357;SDS011;11346;50.150;8.150;2022-09-17T13:11:13;1.33;;;0.87;;
22357;SDS011;11346;50.150;8.150;2022-09-17T13:13:46;2.70;;;1.00;;
22357;SDS011;11346;50.150;8.150;2022-09-17T13:16:15;2.30;;;0.80;;
22357;SDS011;11346;50.150;8.150;2022-09-17T13:18:47;2.47;;;0.90;;
22357;SDS011;11346;50.150;8.150;2022-09-17T13:21:18;3.73;;;1.03;;
22357;SDS011;11346;50.150;8.150;2022-09-17T13:23:48;2.53;;;0.90;;
22357;SDS011;11346;50.150;8.150;2022-09-17T13:26:18;3.27;;;0.77;;
22357;SDS011;11346;50.150;8.150;2022-09-17T13:28:46;1.20;;;0.70;;
22357;SDS011;11346;50.150;8.150;2022-09-17T13:31:18;0.83;;;0.70;;
22357;SDS011;11346;50.150;8.150;2022-09-17T13:33:54;2.03;;;1.00;;
22357;SDS011;11346;50.150;8.150;2022-09-17T13:39:32;1.43;;;0.90;;
22357;SDS011;11346;50.150;8.150;2022-09-17T13:42:03;1.60;;;0.93;;
22357;SDS011;11346;50.150;8.150;2022-09-17T13:44:33;3.63;;;1.30;;
22357;SDS011;11346;50.150;8.150;2022-09-17T13:47:07;2.97;;;0.90;;
22357;SDS011;11346;50.150;8.150;2022-09-17T13:49:36;2.00;;;1.00;;
22357;SDS011;11346;50.150;8.150;2022-09-17T13:52:09;2.93;;;1.00;;
22357;SDS011;11346;50.150;8.150;2022-09-17T13:54:36;1.80;;;0.97;;
22357;SDS011;11346;50.150;8.150;2022-09-17T13:57:13;2.43;;;1.27;;
22357;SDS011;11346;50.150;8.150;2022-09-17T13:59:53;3.07;;;1.10;;
22357;SDS011;11346;50.150;8.150;2022-09-17T14:02:31;1.00;;;0.90;;
22357;SDS011;11346;50.150;8.150;2022-09-17T14:07:49;2.63;;;1.10;;
22357;SDS011;11346;50.150;8.150;2022-09-17T14:10:40;5.50;;;1.20;;
22357;SDS011;11346;50.150;8.150;2022-09-17T14:13:19;2.93;;;1.10;;
22357;SDS011;11346;50.150;8.150;2022-09-17T14:15:53;3.63;;;1.00;;
22357;SDS011;11346;50.150;8.150;2022-09-17T14:18:33;4.97;;;1.10;;
22357;SDS011;11346;50.150;8.150;2022-09-17T14:21:05;3.33;;;0.93;;
22357;SDS011;11346;50.150;8.150;2022-09-17T14:23:34;4.37;;;1.10;;
22357;SDS011;11346;50.150;8.150;2022-09-17T14:26:09;3.33;;;0.93;;
22357;SDS011;11346;50.150;8.150;2022-09-17T14:28:38;2.13;;;0.90;;
22357;SDS011;11346;50.150;8.150;2022-09-17T14:31:10;6.97;;;1.10;;
22357;SDS011;11346;50.150;8.150;2022-09-17T14:33:42;1.87;;;1.20;;
22357;SDS011;11346;50.150;8.150;2022-09-17T14:36:12;1.93;;;0.90;;
22357;SDS011;11346;50.150;8.150;2022-09-17T14:38:43;1.93;;;0.90;;
22357;SDS011;11346;50.150;8.150;2022-09-17T14:41:16;5.47;;;1.00;;
22357;SDS011;11346;50.150;8.150;2022-09-17T14:43:46;2.47;;;0.80;;
22357;SDS011;11346;50.150;8.150;2022-09-17T14:46:16;4.80;;;1.73;;
22357;SDS011;11346;50.150;8.150;2022-09-17T14:48:44;1.53;;;0.70;;
22357;SDS011;11346;50.150;8.150;2022-09-17T14:54:07;2.40;;;1.00;;
22357;SDS011;11346;50.150;8.150;2022-09-17T14:56:38;2.13;;;0.90;;
22357;SDS011;11346;50.150;8.150;2022-09-17T14:59:08;2.13;;;0.90;;
22357;SDS011;11346;50.150;8.150;2022-09-17T15:01:41;3.00;;;1.00;;
22357;SDS011;11346;50.150;8.150;2022-09-17T15:04:21;1.97;;;0.90;;
22357;SDS011;11346;50.150;8.150;2022-09-17T15:06:49;0.87;;;0.60;;
22357;SDS011;11346;50.150;8.150;2022-09-17T15:09:18;4.67;;;0.83;;
22357;SDS011;11346;50.150;8.150;2022-09-17T15:11:45;3.10;;;1.00;;
22357;SDS011;11346;50.150;8.150;2022-09-17T15:14:14;3.13;;;0.90;;
22357;SDS011;11346;50.150;8.150;2022-09-17T15:16:45;0.97;;;0.70;;
22357;SDS011;11346;50.150;8.150;2022-09-17T15:19:13;3.53;;;0.97;;
22357;SDS011;11346;50.150;8.150;2022-09-17T15:21:44;4.73;;;0.83;;
22357;SDS011;11346;50.150;8.150;2022-09-17T15:24:14;2.63;;;1.00;;
22357;SDS011;11346;50.150;8.150;2022-09-17T15:26:47;2.47;;;1.17;;